createdAt,value
2018-08-19T00:02:17.446Z,95519.30
2018-08-19T00:05:05.671Z,95520.36
2018-08-19T00:07:34.989Z,95526.44
2018-08-19T00:10:04.758Z,95517.69
2018-08-19T00:12:39.404Z,95518.92
2018-08-19T00:15:08.667Z,95526.07
2018-08-19T00:17:37.916Z,95523.58
2018-08-19T00:20:11.866Z,95521.34
2018-08-19T00:22:41.262Z,95525.47
2018-08-19T00:25:30.199Z,95525.63
2018-08-19T00:27:59.526Z,95534.02
2018-08-19T00:30:30.224Z,95534.87
2018-08-19T00:32:59.682Z,95538.34
2018-08-19T00:35:29.446Z,95534.84
2018-08-19T00:37:58.886Z,95526.20
2018-08-19T00:40:28.126Z,95527.58
2018-08-19T00:42:57.684Z,95526.86
2018-08-19T00:45:28.463Z,95529.06
2018-08-19T00:47:57.716Z,95526.95
2018-08-19T00:50:26.971Z,95518.44
2018-08-19T00:52:56.494Z,95520.78
2018-08-19T00:55:26.038Z,95526.19
2018-08-19T00:57:58.659Z,95528.91
2018-08-19T01:00:29.164Z,95531.17
2018-08-19T01:02:58.392Z,95534.34
2018-08-19T01:05:27.630Z,95535.59
2018-08-19T01:07:56.874Z,95537.47
2018-08-19T01:10:26.137Z,95535.72
2018-08-19T01:12:55.379Z,95536.95
2018-08-19T01:15:24.644Z,95540.97
2018-08-19T01:17:53.901Z,95539.18
2018-08-19T01:20:23.347Z,95544.65
2018-08-19T01:22:52.582Z,95542.03
2018-08-19T01:25:21.835Z,95541.76
2018-08-19T01:27:52.411Z,95543.30
2018-08-19T01:30:25.193Z,95544.47
2018-08-19T01:32:54.478Z,95544.06
2018-08-19T01:35:32.458Z,95545.58
2018-08-19T01:38:01.711Z,95544.98
2018-08-19T01:40:32.063Z,95543.69
2018-08-19T01:43:01.318Z,95536.45
2018-08-19T01:45:30.556Z,95530.52
2018-08-19T01:47:59.811Z,95537.64
2018-08-19T01:50:29.047Z,95540.22
2018-08-19T01:52:58.283Z,95517.98
2018-08-19T01:55:27.527Z,95536.44
2018-08-19T01:57:57.320Z,95533.03
2018-08-19T02:00:26.549Z,95534.04
2018-08-19T02:02:58.943Z,95535.00
2018-08-19T02:05:28.225Z,95533.25
2018-08-19T02:07:59.529Z,95538.47
2018-08-19T02:10:30.057Z,95535.97
2018-08-19T02:12:59.695Z,95540.94
2018-08-19T02:15:30.089Z,95539.66
2018-08-19T02:18:02.465Z,95535.13
2018-08-19T02:20:34.942Z,95537.91
2018-08-19T02:23:06.106Z,95530.83
2018-08-19T02:25:42.539Z,95534.22
2018-08-19T02:28:12.471Z,95534.56
2018-08-19T02:30:48.762Z,95533.90
2018-08-19T02:33:17.978Z,95530.62
2018-08-19T02:35:55.264Z,95530.30
2018-08-19T02:38:24.985Z,95530.17
2018-08-19T02:40:54.824Z,95529.22
2018-08-19T02:43:24.272Z,95528.20
2018-08-19T02:45:53.512Z,95527.37
2018-08-19T02:48:45.339Z,95532.03
2018-08-19T02:51:15.619Z,95520.55
2018-08-19T02:53:45.937Z,95516.95
2018-08-19T02:56:16.087Z,95519.44
2018-08-19T02:58:46.320Z,95517.65
2018-08-19T03:01:16.520Z,95516.39
2018-08-19T03:03:45.750Z,95517.39
2018-08-19T03:06:14.986Z,95517.94
2018-08-19T03:08:52.743Z,95522.72
2018-08-19T03:11:22.385Z,95521.89
2018-08-19T03:13:51.619Z,95514.52
2018-08-19T03:16:20.857Z,95517.11
2018-08-19T03:18:52.055Z,95518.98
2018-08-19T03:21:22.394Z,95511.34
2018-08-19T03:23:53.039Z,95510.84
2018-08-19T03:26:22.308Z,95500.81
2018-08-19T03:28:51.540Z,95507.25
2018-08-19T03:31:20.787Z,95513.70
2018-08-19T03:33:50.009Z,95514.73
2018-08-19T03:36:19.255Z,95510.42
2018-08-19T03:38:49.730Z,95506.97
2018-08-19T03:41:18.965Z,95508.97
2018-08-19T03:43:53.282Z,95510.14
2018-08-19T03:46:22.530Z,95510.80
2018-08-19T03:48:51.835Z,95506.97
2018-08-19T03:51:21.039Z,95512.92
2018-08-19T03:53:50.265Z,95503.41
2018-08-19T03:56:24.538Z,95513.95
2018-08-19T03:58:57.543Z,95511.85
2018-08-19T04:01:43.337Z,95515.28
2018-08-19T04:04:14.423Z,95514.63
2018-08-19T04:06:44.023Z,95514.49
2018-08-19T04:09:13.262Z,95516.98
2018-08-19T04:11:42.522Z,95526.05
2018-08-19T04:14:27.597Z,95524.92
2018-08-19T04:16:59.055Z,95527.85
2018-08-19T04:19:28.855Z,95525.37
2018-08-19T04:22:02.853Z,95523.06
2018-08-19T04:24:32.449Z,95522.34
2018-08-19T04:27:08.536Z,95523.95
2018-08-19T04:29:38.894Z,95524.98
2018-08-19T04:32:16.201Z,95525.16
2018-08-19T04:34:45.422Z,95523.50
2018-08-19T04:37:14.675Z,95524.78
2018-08-19T04:39:43.920Z,95523.33
2018-08-19T04:42:13.161Z,95526.86
2018-08-19T04:44:42.544Z,95526.88
2018-08-19T04:47:27.663Z,95526.32
2018-08-19T04:49:57.035Z,95520.99
2018-08-19T04:52:26.910Z,95522.93
2018-08-19T04:54:56.940Z,95523.56
2018-08-19T04:57:26.153Z,95532.25
2018-08-19T04:59:55.423Z,95533.70
2018-08-19T05:02:24.882Z,95531.97
2018-08-19T05:04:55.088Z,95536.15
2018-08-19T05:07:24.317Z,95537.28
2018-08-19T05:09:53.555Z,95531.92
2018-08-19T05:12:22.821Z,95540.99
2018-08-19T05:14:52.083Z,95539.66
2018-08-19T05:17:21.302Z,95536.19
2018-08-19T05:19:50.872Z,95538.44
2018-08-19T05:22:20.163Z,95534.77
2018-08-19T05:24:49.363Z,95532.19
2018-08-19T05:27:18.611Z,95539.23
2018-08-19T05:29:47.860Z,95540.91
2018-08-19T05:32:17.107Z,95533.36
2018-08-19T05:34:46.316Z,95540.87
2018-08-19T05:37:15.551Z,95533.97
2018-08-19T05:39:49.891Z,95534.68
2018-08-19T05:42:19.139Z,95540.13
2018-08-19T05:44:48.391Z,95539.05
2018-08-19T05:47:17.758Z,95540.34
2018-08-19T05:49:47.898Z,95542.67
2018-08-19T05:52:21.958Z,95545.74
2018-08-19T05:54:56.347Z,95539.27
2018-08-19T05:57:25.575Z,95544.33
2018-08-19T05:59:55.854Z,95542.89
2018-08-19T06:02:46.823Z,95538.19
2018-08-19T06:05:16.067Z,95540.55
2018-08-19T06:07:45.315Z,95534.81
2018-08-19T06:10:14.562Z,95530.52
2018-08-19T06:12:43.794Z,95528.61
2018-08-19T06:15:13.040Z,95532.55
2018-08-19T06:17:42.270Z,95530.77
2018-08-19T06:20:11.528Z,95531.61
2018-08-19T06:22:41.489Z,95539.02
2018-08-19T06:25:11.813Z,95534.63
2018-08-19T06:27:44.796Z,95534.22
2018-08-19T06:30:14.681Z,95533.41
2018-08-19T06:32:43.931Z,95535.77
2018-08-19T06:35:13.247Z,95533.38
2018-08-19T06:37:42.539Z,95540.43
2018-08-19T06:40:13.787Z,95530.58
2018-08-19T06:42:43.010Z,95530.25
2018-08-19T06:45:12.898Z,95533.99
2018-08-19T06:47:42.210Z,95533.91
2018-08-19T06:50:22.206Z,95537.70
2018-08-19T06:52:51.575Z,95532.48
2018-08-19T06:55:20.946Z,95532.21
2018-08-19T06:57:50.298Z,95538.25
2018-08-19T07:00:26.715Z,95535.31
2018-08-19T07:02:57.558Z,95534.52
2018-08-19T07:05:26.854Z,95539.80
2018-08-19T07:07:56.124Z,95528.84
2018-08-19T07:10:31.812Z,95530.34
2018-08-19T07:13:06.301Z,95527.71
2018-08-19T07:15:36.706Z,95530.82
2018-08-19T07:18:07.172Z,95532.25
2018-08-19T07:20:37.270Z,95526.75
2018-08-19T07:23:06.892Z,95529.02
2018-08-19T07:25:38.335Z,95523.14
2018-08-19T07:28:09.071Z,95531.17
2018-08-19T07:30:38.400Z,95529.40
2018-08-19T07:33:07.858Z,95527.32
2018-08-19T07:35:37.304Z,95525.59
2018-08-19T07:38:06.535Z,95522.87
2018-08-19T07:40:35.801Z,95525.02
2018-08-19T07:43:05.136Z,95524.73
2018-08-19T07:45:34.367Z,95524.58
2018-08-19T07:48:03.622Z,95521.34
2018-08-19T07:50:32.853Z,95513.65
2018-08-19T07:53:02.092Z,95509.06
2018-08-19T07:55:31.328Z,95513.24
2018-08-19T07:58:00.550Z,95511.61
2018-08-19T08:00:35.038Z,95513.32
2018-08-19T08:03:04.283Z,95511.11
2018-08-19T08:05:38.748Z,95517.63
2018-08-19T08:08:09.022Z,95511.63
2018-08-19T08:10:39.150Z,95510.62
2018-08-19T08:13:10.580Z,95512.13
2018-08-19T08:15:49.747Z,95515.60
2018-08-19T08:18:18.999Z,95518.05
2018-08-19T08:20:48.258Z,95509.91
2018-08-19T08:23:22.998Z,95518.03
2018-08-19T08:25:52.227Z,95507.34
2018-08-19T08:28:21.636Z,95513.38
2018-08-19T08:30:50.926Z,95517.26
2018-08-19T08:33:20.171Z,95520.02
2018-08-19T08:35:55.378Z,95520.53
2018-08-19T08:38:24.656Z,95515.16
2018-08-19T08:40:54.148Z,95508.80
2018-08-19T08:43:23.528Z,95508.80
2018-08-19T08:45:55.097Z,95508.43
2018-08-19T08:48:24.346Z,95506.12
2018-08-19T08:50:53.548Z,95506.31
2018-08-19T08:53:25.541Z,95500.45
2018-08-19T08:55:54.639Z,95497.86
2018-08-19T08:58:23.904Z,95496.81
2018-08-19T09:00:53.121Z,95493.95
2018-08-19T09:03:22.427Z,95493.30
2018-08-19T09:05:51.604Z,95492.93
2018-08-19T09:08:20.827Z,95492.11
2018-08-19T09:10:50.579Z,95487.52
2018-08-19T09:13:19.819Z,95484.98
2018-08-19T09:15:49.084Z,95482.77
2018-08-19T09:18:18.314Z,95483.72
2018-08-19T09:20:47.591Z,95488.77
2018-08-19T09:23:16.910Z,95483.52
2018-08-19T09:25:46.057Z,95484.18
2018-08-19T09:28:15.311Z,95480.48
2018-08-19T09:30:45.242Z,95478.42
2018-08-19T09:33:14.912Z,95476.70
2018-08-19T09:35:44.518Z,95475.44
2018-08-19T09:38:22.311Z,95474.14
2018-08-19T09:40:52.615Z,95461.27
2018-08-19T09:43:21.702Z,95470.62
2018-08-19T09:45:50.956Z,95466.48
2018-08-19T09:48:20.175Z,95470.33
2018-08-19T09:50:49.397Z,95459.91
2018-08-19T09:53:18.637Z,95464.45
2018-08-19T09:55:55.038Z,95466.24
2018-08-19T09:58:24.290Z,95457.12
2018-08-19T10:01:58.827Z,95453.16
2018-08-19T10:04:28.248Z,95452.15
2018-08-19T10:07:06.649Z,95448.64
2018-08-19T10:09:35.896Z,95447.36
2018-08-19T10:12:05.140Z,95440.27
2018-08-19T10:14:34.373Z,95441.36
2018-08-19T10:17:03.631Z,95442.09
2018-08-19T10:19:32.933Z,95441.80
2018-08-19T10:22:02.178Z,95434.11
2018-08-19T10:24:32.545Z,95434.30
2018-08-19T10:27:01.928Z,95435.05
2018-08-19T10:29:31.170Z,95422.70
2018-08-19T10:32:02.010Z,95422.87
2018-08-19T10:34:35.607Z,95422.16
2018-08-19T10:37:05.307Z,95424.10
2018-08-19T10:39:34.551Z,95420.27
2018-08-19T10:42:21.083Z,95417.59
2018-08-19T10:44:51.439Z,95414.06
2018-08-19T10:47:21.445Z,95417.66
2018-08-19T10:50:10.432Z,95415.28
2018-08-19T10:52:41.700Z,95415.26
2018-08-19T10:55:12.082Z,95411.16
2018-08-19T10:57:41.327Z,95412.58
2018-08-19T11:00:21.217Z,95406.92
2018-08-19T11:02:50.433Z,95397.83
2018-08-19T11:05:19.666Z,95395.47
2018-08-19T11:07:48.914Z,95399.11
2018-08-19T11:10:19.959Z,95395.48
2018-08-19T11:12:52.203Z,95391.74
2018-08-19T11:15:36.091Z,95387.64
2018-08-19T11:18:26.198Z,95396.45
2018-08-19T11:21:00.381Z,95404.81
2018-08-19T11:23:29.766Z,95387.14
2018-08-19T11:25:59.304Z,95386.59
2018-08-19T11:28:39.675Z,95385.17
2018-08-19T11:31:24.210Z,95387.75
2018-08-19T11:33:56.185Z,95385.13
2018-08-19T11:36:31.860Z,95382.48
2018-08-19T11:39:01.253Z,95379.23
2018-08-19T11:41:32.960Z,95374.14
2018-08-19T11:44:10.937Z,95373.06
2018-08-19T11:46:40.215Z,95367.07
2018-08-19T11:49:10.623Z,95373.53
2018-08-19T11:51:57.023Z,95368.61
2018-08-19T11:54:26.993Z,95367.75
2018-08-19T11:57:14.044Z,95365.81
2018-08-19T11:59:44.400Z,95360.17
2018-08-19T12:02:20.723Z,95351.08
2018-08-19T12:04:49.945Z,95358.02
2018-08-19T12:07:19.679Z,95357.26
2018-08-19T12:09:55.815Z,95355.92
2018-08-19T12:12:45.178Z,95354.35
2018-08-19T12:15:14.415Z,95344.66
2018-08-19T12:17:43.974Z,95342.54
2018-08-19T12:20:13.227Z,95346.43
2018-08-19T12:22:43.857Z,95341.16
2018-08-19T12:25:13.068Z,95339.78
2018-08-19T12:27:42.405Z,95338.84
2018-08-19T12:30:14.531Z,95337.48
2018-08-19T12:32:43.776Z,95334.55
2018-08-19T12:35:13.016Z,95330.93
2018-08-19T12:37:42.309Z,95328.19
2018-08-19T12:40:11.462Z,95323.23
2018-08-19T12:42:45.968Z,95313.50
2018-08-19T12:45:15.226Z,95314.84
2018-08-19T12:47:44.455Z,95315.57
2018-08-19T12:50:15.213Z,95310.67
2018-08-19T12:52:44.439Z,95311.91
2018-08-19T12:55:16.210Z,95311.88
2018-08-19T12:57:45.860Z,95302.76
2018-08-19T13:00:23.014Z,95292.63
2018-08-19T13:02:52.875Z,95290.86
2018-08-19T13:05:22.432Z,95298.73
2018-08-19T13:07:51.805Z,95290.78
2018-08-19T13:10:21.402Z,95295.73
2018-08-19T13:12:58.219Z,95293.79
2018-08-19T13:15:29.796Z,95293.95
2018-08-19T13:17:59.212Z,95290.45
2018-08-19T13:20:28.451Z,95289.63
2018-08-19T13:23:01.015Z,95283.53
2018-08-19T13:25:30.572Z,95282.94
2018-08-19T13:27:59.811Z,95281.45
2018-08-19T13:30:29.076Z,95286.19
2018-08-19T13:32:58.345Z,95282.84
2018-08-19T13:35:27.609Z,95281.48
2018-08-19T13:37:56.860Z,95276.02
2018-08-19T13:40:26.873Z,95279.30
2018-08-19T13:42:56.122Z,95269.45
2018-08-19T13:45:27.362Z,95272.04
2018-08-19T13:47:56.465Z,95273.31
2018-08-19T13:50:25.755Z,95267.23
2018-08-19T13:52:55.026Z,95265.03
2018-08-19T13:55:24.262Z,95256.30
2018-08-19T13:57:53.512Z,95259.14
2018-08-19T14:00:24.015Z,95260.06
2018-08-19T14:02:53.295Z,95252.89
2018-08-19T14:05:23.282Z,95257.95
2018-08-19T14:07:52.520Z,95250.41
2018-08-19T14:10:21.773Z,95244.14
2018-08-19T14:12:51.010Z,95244.84
2018-08-19T14:15:20.258Z,95247.02
2018-08-19T14:17:50.330Z,95249.83
2018-08-19T14:20:20.013Z,95248.12
2018-08-19T14:22:49.901Z,95243.31
2018-08-19T14:25:19.975Z,95243.22
2018-08-19T14:27:49.550Z,95240.50
2018-08-19T14:30:20.298Z,95240.95
2018-08-19T14:32:50.620Z,95241.02
2018-08-19T14:35:19.893Z,95236.52
2018-08-19T14:37:49.118Z,95237.16
2018-08-19T14:40:19.290Z,95236.65
2018-08-19T14:42:48.380Z,95229.05
2018-08-19T14:45:17.618Z,95231.52
2018-08-19T14:47:46.876Z,95232.63
2018-08-19T14:50:18.374Z,95229.03
2018-08-19T14:52:47.612Z,95226.67
2018-08-19T14:55:16.858Z,95222.99
2018-08-19T14:57:46.063Z,95228.02
2018-08-19T15:00:16.762Z,95226.78
2018-08-19T15:02:45.998Z,95225.27
2018-08-19T15:05:20.199Z,95230.25
2018-08-19T15:07:49.774Z,95226.53
2018-08-19T15:10:24.965Z,95223.88
2018-08-19T15:12:54.436Z,95222.63
2018-08-19T15:15:23.698Z,95222.47
2018-08-19T15:17:59.838Z,95227.97
2018-08-19T15:20:33.169Z,95218.94
2018-08-19T15:23:17.654Z,95213.53
2018-08-19T15:25:47.088Z,95219.05
2018-08-19T15:28:17.059Z,95211.58
2018-08-19T15:30:46.306Z,95215.81
2018-08-19T15:33:16.125Z,95211.04
2018-08-19T15:35:45.358Z,95211.36
2018-08-19T15:38:14.593Z,95214.34
2018-08-19T15:40:48.660Z,95206.20
2018-08-19T15:43:17.872Z,95207.78
2018-08-19T15:45:47.101Z,95205.45
2018-08-19T15:48:16.367Z,95201.66
2018-08-19T15:50:45.598Z,95206.81
2018-08-19T15:53:17.009Z,95203.08
2018-08-19T15:55:46.272Z,95200.84
2018-08-19T15:58:15.565Z,95201.84
2018-08-19T16:00:44.790Z,95208.02
2018-08-19T16:03:14.012Z,95201.28
2018-08-19T16:05:43.268Z,95200.44
2018-08-19T16:08:12.498Z,95200.63
2018-08-19T16:10:42.458Z,95209.36
2018-08-19T16:13:12.510Z,95214.92
2018-08-19T16:15:41.814Z,95210.61
2018-08-19T16:18:11.035Z,95206.45
2018-08-19T16:20:40.642Z,95206.64
2018-08-19T16:23:10.111Z,95208.11
2018-08-19T16:25:39.332Z,95207.32
2018-08-19T16:28:08.599Z,95211.05
2018-08-19T16:30:37.960Z,95207.68
2018-08-19T16:33:07.199Z,95207.45
2018-08-19T16:35:36.790Z,95213.89
2018-08-19T16:38:06.301Z,95209.38
2018-08-19T16:40:35.533Z,95202.83
2018-08-19T16:43:05.795Z,95211.98
2018-08-19T16:45:35.019Z,95206.28
2018-08-19T16:48:04.275Z,95205.45
2018-08-19T16:50:33.523Z,95204.38
2018-08-19T16:53:02.741Z,95203.53
2018-08-19T16:55:32.006Z,95204.37
2018-08-19T16:58:07.950Z,95203.28
2018-08-19T17:00:37.173Z,95206.66
2018-08-19T17:03:33.967Z,95203.48
2018-08-19T17:06:03.624Z,95205.06
2018-08-19T17:08:33.014Z,95200.22
2018-08-19T17:11:02.256Z,95208.64
2018-08-19T17:13:31.547Z,95203.81
2018-08-19T17:16:00.818Z,95210.52
2018-08-19T17:18:30.277Z,95203.78
2018-08-19T17:20:59.511Z,95204.58
2018-08-19T17:23:28.722Z,95204.58
2018-08-19T17:26:05.581Z,95205.37
2018-08-19T17:28:34.777Z,95205.61
2018-08-19T17:31:04.003Z,95207.42
2018-08-19T17:33:33.226Z,95209.28
2018-08-19T17:36:02.475Z,95205.78
2018-08-19T17:38:34.801Z,95199.29
2018-08-19T17:41:04.432Z,95200.30
2018-08-19T17:43:38.983Z,95197.75
2018-08-19T17:46:12.007Z,95200.04
2018-08-19T17:48:42.191Z,95205.30
2018-08-19T17:51:27.211Z,95207.31
2018-08-19T17:53:56.444Z,95215.11
2018-08-19T17:56:25.702Z,95216.60
2018-08-19T17:58:54.955Z,95219.93
2018-08-19T18:01:24.322Z,95223.70
2018-08-19T18:03:53.537Z,95220.68
2018-08-19T18:06:22.770Z,95226.59
2018-08-19T18:08:52.791Z,95227.78
2018-08-19T18:11:22.364Z,95232.58
2018-08-19T18:13:51.583Z,95221.57
2018-08-19T18:16:20.834Z,95221.31
2018-08-19T18:18:50.082Z,95227.21
2018-08-19T18:21:19.331Z,95232.38
2018-08-19T18:23:49.447Z,95232.65
2018-08-19T18:26:18.689Z,95240.20
2018-08-19T18:28:48.781Z,95240.28
2018-08-19T18:31:22.516Z,95237.80
2018-08-19T18:33:58.958Z,95239.54
2018-08-19T18:36:29.722Z,95243.78
2018-08-19T18:38:59.402Z,95245.97
2018-08-19T18:41:31.602Z,95250.31
2018-08-19T18:44:02.867Z,95248.55
2018-08-19T18:46:32.504Z,95251.46
2018-08-19T18:49:13.304Z,95256.53
2018-08-19T18:51:44.920Z,95257.46
2018-08-19T18:54:20.802Z,95258.91
2018-08-19T18:56:50.080Z,95263.31
2018-08-19T18:59:19.322Z,95263.21
2018-08-19T19:01:48.560Z,95266.05
2018-08-19T19:04:17.767Z,95264.31
2018-08-19T19:06:47.019Z,95263.75
2018-08-19T19:09:16.235Z,95270.39
2018-08-19T19:11:45.491Z,95271.19
2018-08-19T19:14:19.175Z,95270.32
2018-08-19T19:16:50.699Z,95264.08
2018-08-19T19:19:20.203Z,95269.45
2018-08-19T19:21:54.567Z,95274.50
2018-08-19T19:24:39.530Z,95276.31
2018-08-19T19:27:09.412Z,95277.77
2018-08-19T19:29:38.650Z,95275.61
2018-08-19T19:32:17.939Z,95281.91
2018-08-19T19:34:47.158Z,95279.61
2018-08-19T19:37:16.410Z,95282.93
2018-08-19T19:39:45.830Z,95283.61
2018-08-19T19:42:15.061Z,95288.05
2018-08-19T19:44:44.308Z,95292.63
2018-08-19T19:47:13.532Z,95289.97
2018-08-19T19:49:47.986Z,95286.41
2018-08-19T19:52:17.190Z,95286.78
2018-08-19T19:54:46.414Z,95291.61
2018-08-19T19:57:15.639Z,95291.86
2018-08-19T19:59:44.869Z,95292.95
2018-08-19T20:02:19.540Z,95295.52
2018-08-19T20:04:48.778Z,95300.28
2018-08-19T20:07:18.094Z,95304.96
2018-08-19T20:09:47.319Z,95303.15
2018-08-19T20:12:25.637Z,95303.42
2018-08-19T20:14:54.880Z,95303.38
2018-08-19T20:17:24.135Z,95300.11
2018-08-19T20:19:53.383Z,95309.58
2018-08-19T20:22:22.639Z,95302.38
2018-08-19T20:24:51.866Z,95305.16
2018-08-19T20:27:22.343Z,95308.27
2018-08-19T20:29:53.533Z,95311.80
2018-08-19T20:32:22.932Z,95310.13
2018-08-19T20:34:52.424Z,95312.59
2018-08-19T20:37:24.467Z,95310.24
2018-08-19T20:39:54.225Z,95314.27
2018-08-19T20:42:23.570Z,95317.50
2018-08-19T20:44:52.816Z,95317.00
2018-08-19T20:47:22.035Z,95315.27
2018-08-19T20:49:51.432Z,95318.66
2018-08-19T20:52:35.038Z,95316.73
2018-08-19T20:55:04.300Z,95317.94
2018-08-19T20:57:33.703Z,95322.01
2018-08-19T21:00:03.042Z,95326.71
2018-08-19T21:02:32.187Z,95336.69
2018-08-19T21:05:01.418Z,95330.32
2018-08-19T21:07:30.658Z,95333.62
2018-08-19T21:10:00.911Z,95334.91
2018-08-19T21:12:30.156Z,95338.94
2018-08-19T21:14:59.558Z,95337.89
2018-08-19T21:17:31.355Z,95335.87
2018-08-19T21:20:00.753Z,95333.22
2018-08-19T21:22:30.047Z,95340.08
2018-08-19T21:24:59.263Z,95340.70
2018-08-19T21:27:28.493Z,95340.70
2018-08-19T21:29:57.776Z,95346.48
2018-08-19T21:32:26.983Z,95345.98
2018-08-19T21:34:56.969Z,95344.27
2018-08-19T21:37:34.260Z,95345.58
2018-08-19T21:40:04.464Z,95350.48
2018-08-19T21:42:48.798Z,95349.55
2018-08-19T21:45:18.019Z,95353.63
2018-08-19T21:47:47.349Z,95355.77
2018-08-19T21:50:16.576Z,95358.11
2018-08-19T21:53:08.840Z,95357.75
2018-08-19T21:55:41.381Z,95356.33
2018-08-19T21:58:10.658Z,95353.58
2018-08-19T22:00:42.769Z,95359.78
2018-08-19T22:03:21.223Z,95357.97
2018-08-19T22:05:52.552Z,95353.79
2018-08-19T22:08:23.258Z,95355.88
2018-08-19T22:10:52.541Z,95350.83
2018-08-19T22:13:21.803Z,95353.14
2018-08-19T22:15:51.052Z,95357.22
2018-08-19T22:18:21.469Z,95353.45
2018-08-19T22:21:13.578Z,95351.28
2018-08-19T22:23:46.118Z,95356.88
2018-08-19T22:26:16.393Z,95357.59
2018-08-19T22:28:46.015Z,95359.31
2018-08-19T22:31:26.445Z,95356.48
2018-08-19T22:33:57.007Z,95361.44
2018-08-19T22:36:26.666Z,95362.13
2018-08-19T22:38:56.687Z,95357.51
2018-08-19T22:41:29.370Z,95358.33
2018-08-19T22:43:58.851Z,95353.22
2018-08-19T22:46:28.549Z,95365.09
2018-08-19T22:48:58.335Z,95363.02
2018-08-19T22:51:33.111Z,95358.11
2018-08-19T22:54:02.355Z,95356.64
2018-08-19T22:56:31.594Z,95351.82
2018-08-19T22:59:00.830Z,95353.97
2018-08-19T23:01:35.299Z,95351.71
2018-08-19T23:04:04.697Z,95353.36
2018-08-19T23:06:34.289Z,95354.57
2018-08-19T23:09:04.885Z,95354.00
2018-08-19T23:11:39.234Z,95356.44
2018-08-19T23:16:31.216Z,95348.59
2018-08-19T23:19:00.449Z,95353.42
2018-08-19T23:21:29.704Z,95350.96
2018-08-19T23:23:58.939Z,95361.87
2018-08-19T23:26:28.175Z,95364.32
2018-08-19T23:28:57.420Z,95362.06
2018-08-19T23:31:26.643Z,95364.98
2018-08-19T23:33:55.882Z,95366.16
2018-08-19T23:36:25.999Z,95356.57
2018-08-19T23:38:55.253Z,95355.77
2018-08-19T23:41:24.503Z,95353.98
2018-08-19T23:43:53.723Z,95358.28
2018-08-19T23:46:22.942Z,95357.21
2018-08-19T23:48:52.212Z,95355.30
2018-08-19T23:51:25.659Z,95360.15
2018-08-19T23:53:55.080Z,95356.18
2018-08-19T23:56:24.455Z,95353.42
2018-08-19T23:58:53.699Z,95353.80
